Time;durP1;ratioP1;P1;durP2;ratioP2;P2;SDS_P1;SDS_P2;PMS_P1;PMS_P2;Temp;Humidity;BMP_temperature;BMP_pressure;BME280_temperature;BME280_humidity;BME280_pressure;Samples;Min_cycle;Max_cycle;Signal;HPM_P1;HPM_P2
2022/05/24 00:03:32;;;;;;;0.10;0.10;;;;;;;-145.06;100.00;63404.56;10378918;28;20022;-64
2022/05/24 00:08:33;;;;;;;0.10;0.10;;;;;;;-145.06;100.00;63404.56;10387671;28;20283;-64
2022/05/24 00:13:33;;;;;;;0.10;0.10;;;;;;;-145.06;100.00;63404.56;10396509;28;20061;-64
2022/05/24 00:18:34;;;;;;;0.10;0.10;;;;;;;-145.06;100.00;63404.56;10387348;28;20513;-63
2022/05/24 00:23:35;;;;;;;0.10;0.10;;;;;;;-145.06;100.00;63404.56;10390420;28;20351;-64
2022/05/24 00:28:36;;;;;;;0.20;0.20;;;;;;;-145.06;100.00;63404.56;10390974;28;20025;-64
2022/05/24 00:33:36;;;;;;;0.10;0.10;;;;;;;-145.06;100.00;63404.56;10383916;28;20022;-64
2022/05/24 00:38:37;;;;;;;0.10;0.10;;;;;;;-145.06;100.00;63404.56;10377285;28;20470;-63
2022/05/24 00:43:43;;;;;;;0.10;0.10;;;;;;;-145.06;100.00;63404.56;10391946;28;20028;-63
2022/05/24 00:48:53;;;;;;;0.10;0.10;;;;;;;-145.06;100.00;63404.56;10386974;28;20569;-62
2022/05/24 00:53:55;;;;;;;0.10;0.10;;;;;;;-145.06;100.00;63404.56;10409076;28;20017;-63
2022/05/24 00:59:03;;;;;;;0.20;0.20;;;;;;;-145.06;100.00;63404.56;10376200;28;20049;-64
2022/05/24 01:04:05;;;;;;;0.10;0.10;;;;;;;-145.06;100.00;63404.56;10393958;28;20104;-64
2022/05/24 01:09:18;;;;;;;0.10;0.10;;;;;;;-145.06;100.00;63404.56;10380157;28;20430;-64
2022/05/24 01:14:22;;;;;;;0.03;0.03;;;;;;;-145.06;100.00;63404.56;10380386;28;20040;-64
2022/05/24 01:19:43;;;;;;;0.10;0.10;;;;;;;-145.06;100.00;63404.56;10397509;28;20025;-64
2022/05/24 01:25:01;;;;;;;0.10;0.10;;;;;;;-145.06;100.00;63404.56;10383373;28;20038;-63
2022/05/24 01:30:04;;;;;;;0.10;0.10;;;;;;;-145.06;100.00;63404.56;10390198;28;20086;-63
2022/05/24 01:40:24;;;;;;;0.10;0.10;;;;;;;-145.06;100.00;63404.56;10383430;28;20037;-64
2022/05/24 01:45:34;;;;;;;0.10;0.10;;;;;;;-145.06;100.00;63404.56;10384479;28;20100;-63
2022/05/24 01:50:36;;;;;;;0.10;0.10;;;;;;;-145.06;100.00;63404.56;10380639;28;20027;-64
2022/05/24 01:55:53;;;;;;;0.10;0.10;;;;;;;-145.06;100.00;63404.56;10394650;28;20409;-63
2022/05/24 02:00:59;;;;;;;0.10;0.10;;;;;;;-145.06;100.00;63404.56;10386106;28;20077;-62
2022/05/24 02:05:59;;;;;;;0.10;0.10;;;;;;;-145.06;100.00;63404.56;10386719;28;20876;-63
2022/05/24 02:11:03;;;;;;;0.10;0.10;;;;;;;-145.06;100.00;63404.56;10394668;28;20030;-64
2022/05/24 02:16:08;;;;;;;0.10;0.10;;;;;;;-145.06;100.00;63404.56;10385978;28;20152;-64
2022/05/24 02:21:09;;;;;;;0.10;0.10;;;;;;;-145.06;100.00;63404.56;10381658;28;20030;-63
2022/05/24 02:26:11;;;;;;;0.10;0.10;;;;;;;-145.06;100.00;63404.56;10370376;28;20134;-62
2022/05/24 02:31:17;;;;;;;0.00;0.00;;;;;;;-145.06;100.00;63404.56;10407555;28;20037;-64
2022/05/24 02:36:18;;;;;;;0.10;0.10;;;;;;;-145.06;100.00;63404.56;10375455;28;20030;-64
2022/05/24 02:41:34;;;;;;;0.10;0.10;;;;;;;-145.06;100.00;63404.56;10391525;28;20432;-64
2022/05/24 02:46:37;;;;;;;0.10;0.10;;;;;;;-145.06;100.00;63404.56;10386852;28;20021;-64
2022/05/24 02:51:40;;;;;;;0.10;0.10;;;;;;;-145.06;100.00;63404.56;10385982;28;20153;-64
2022/05/24 02:56:43;;;;;;;0.10;0.10;;;;;;;-145.06;100.00;63404.56;10395580;28;20400;-64
2022/05/24 03:01:43;;;;;;;0.10;0.10;;;;;;;-145.06;100.00;63404.56;10379505;28;20105;-64
2022/05/24 03:17:24;;;;;;;0.10;0.10;;;;;;;-145.06;100.00;63404.56;10379632;28;20038;-64
2022/05/24 03:22:25;;;;;;;0.05;0.05;;;;;;;-145.06;100.00;63404.56;10384740;28;20507;-64
2022/05/24 03:27:25;;;;;;;0.10;0.10;;;;;;;-145.06;100.00;63404.56;10366836;28;20022;-63
2022/05/24 03:32:26;;;;;;;0.10;0.10;;;;;;;-145.06;100.00;63404.56;10368282;28;20021;-63
2022/05/24 03:37:26;;;;;;;0.10;0.10;;;;;;;-145.06;100.00;63404.56;10378999;28;20045;-64
2022/05/24 03:42:27;;;;;;;0.10;0.10;;;;;;;-145.06;100.00;63404.56;10379864;28;20025;-64
2022/05/24 03:47:27;;;;;;;0.08;0.08;;;;;;;-145.06;100.00;63404.56;10376426;28;20017;-64
2022/05/24 03:52:27;;;;;;;0.10;0.10;;;;;;;-145.06;100.00;63404.56;10386279;28;20417;-64
2022/05/24 04:02:47;;;;;;;0.10;0.10;;;;;;;-145.06;100.00;63404.56;10379808;28;20037;-60
2022/05/24 04:07:48;;;;;;;0.10;0.10;;;;;;;-145.06;100.00;63404.56;10391453;28;20025;-63
2022/05/24 04:12:48;;;;;;;0.17;0.17;;;;;;;-145.06;100.00;63404.56;10382895;28;20022;-63
2022/05/24 04:17:51;;;;;;;0.10;0.10;;;;;;;-145.06;100.00;63404.56;10389695;28;20029;-63
2022/05/24 04:22:55;;;;;;;0.00;0.00;;;;;;;-145.06;100.00;63404.56;10400705;28;20037;-64
2022/05/24 04:27:56;;;;;;;0.10;0.10;;;;;;;-145.06;100.00;63404.56;10403761;28;20030;-64
2022/05/24 04:32:56;;;;;;;0.10;0.10;;;;;;;-145.06;100.00;63404.56;10388251;28;20396;-64
2022/05/24 04:37:59;;;;;;;0.10;0.10;;;;;;;-145.06;100.00;63404.56;10398667;28;20017;-64
2022/05/24 04:42:59;;;;;;;0.08;0.08;;;;;;;-145.06;100.00;63404.56;10385362;28;20030;-64
2022/05/24 04:47:59;;;;;;;0.10;0.10;;;;;;;-145.06;100.00;63404.56;10391576;28;20432;-64
2022/05/24 04:53:00;;;;;;;0.00;0.00;;;;;;;-145.06;100.00;63404.56;10400958;28;20025;-64
2022/05/24 04:58:00;;;;;;;0.10;0.10;;;;;;;-145.06;100.00;63404.56;10391014;28;20068;-64
2022/05/24 05:03:07;;;;;;;0.10;0.10;;;;;;;-145.06;100.00;63404.56;10389976;28;20033;-63
2022/05/24 05:08:07;;;;;;;0.10;0.10;;;;;;;-145.06;100.00;63404.56;10387247;28;20017;-64
2022/05/24 05:13:09;;;;;;;0.10;0.10;;;;;;;-145.06;100.00;63404.56;10398166;28;20498;-64
2022/05/24 05:18:12;;;;;;;0.00;0.00;;;;;;;-145.06;100.00;63404.56;10401988;22;20293;-65
2022/05/24 05:23:15;;;;;;;0.10;0.10;;;;;;;-145.06;100.00;63404.56;10369871;28;20124;-65
2022/05/24 05:28:17;;;;;;;0.10;0.10;;;;;;;-145.06;100.00;63404.56;10351700;28;20021;-65
2022/05/24 05:33:17;;;;;;;0.00;0.00;;;;;;;-145.06;100.00;63404.56;10334471;28;20385;-65
2022/05/24 05:38:18;;;;;;;0.10;0.10;;;;;;;-145.06;100.00;63404.56;10339864;28;20014;-65
2022/05/24 05:43:19;;;;;;;0.10;0.10;;;;;;;-145.06;100.00;63404.56;10337566;28;20038;-64
2022/05/24 05:48:20;;;;;;;0.10;0.10;;;;;;;-145.06;100.00;63404.56;10336894;28;20018;-65
2022/05/24 05:53:20;;;;;;;0.10;0.10;;;;;;;-145.06;100.00;63404.56;10342018;28;20029;-65
2022/05/24 05:58:21;;;;;;;0.10;0.10;;;;;;;-145.06;100.00;63404.56;10329405;28;20377;-64
2022/05/24 06:03:21;;;;;;;0.00;0.00;;;;;;;-145.06;100.00;63404.56;10330404;28;20045;-65
2022/05/24 06:08:22;;;;;;;0.10;0.10;;;;;;;-145.06;100.00;63404.56;10328682;28;20027;-65
2022/05/24 06:13:22;;;;;;;0.10;0.10;;;;;;;-145.06;100.00;63404.56;10328068;28;20037;-65
2022/05/24 06:18:22;;;;;;;0.10;0.10;;;;;;;-145.06;100.00;63404.56;10328894;28;20038;-65
2022/05/24 06:23:24;;;;;;;0.00;0.00;;;;;;;-145.06;100.00;63404.56;10328167;28;20022;-65
2022/05/24 06:28:26;;;;;;;0.00;0.00;;;;;;;-145.06;100.00;63404.56;10329607;28;20014;-65
2022/05/24 06:33:27;;;;;;;0.10;0.10;;;;;;;-145.06;100.00;63404.56;10341400;28;20023;-65
2022/05/24 06:38:27;;;;;;;0.00;0.00;;;;;;;-145.06;100.00;63404.56;10328784;28;20024;-65
2022/05/24 06:43:27;;;;;;;0.00;0.00;;;;;;;-145.06;100.00;63404.56;10326716;28;20042;-65
2022/05/24 06:48:28;;;;;;;0.10;0.10;;;;;;;-145.06;100.00;63404.56;10322509;28;20034;-64
2022/05/24 06:53:29;;;;;;;0.10;0.10;;;;;;;-145.06;100.00;63404.56;10326899;28;20504;-65
2022/05/24 06:58:29;;;;;;;0.10;0.10;;;;;;;-145.06;100.00;63404.56;10324832;28;20025;-64
2022/05/24 07:03:29;;;;;;;0.10;0.10;;;;;;;-145.06;100.00;63404.56;10326550;28;20044;-65
2022/05/24 07:08:30;;;;;;;0.03;0.03;;;;;;;-145.06;100.00;63404.56;10326660;28;20433;-64
2022/05/24 07:13:30;;;;;;;0.00;0.00;;;;;;;-145.06;100.00;63404.56;10327625;28;20022;-65
2022/05/24 07:18:31;;;;;;;0.00;0.00;;;;;;;-145.06;100.00;63404.56;10324130;28;20485;-65
2022/05/24 07:23:37;;;;;;;0.00;0.00;;;;;;;-145.06;100.00;63404.56;10308782;28;20469;-64
2022/05/24 07:28:37;;;;;;;0.00;0.00;;;;;;;-145.06;100.00;63404.56;10326568;28;20018;-64
2022/05/24 07:33:37;;;;;;;0.00;0.00;;;;;;;-145.06;100.00;63404.56;10326558;28;20031;-64
2022/05/24 07:38:38;;;;;;;0.10;0.10;;;;;;;-145.06;100.00;63404.56;10333355;28;20026;-65
2022/05/24 07:48:58;;;;;;;0.00;0.00;;;;;;;-145.06;100.00;63404.56;10351516;28;20026;-64
2022/05/24 07:53:58;;;;;;;0.10;0.10;;;;;;;-145.06;100.00;63404.56;10330066;28;20397;-64
2022/05/24 07:58:58;;;;;;;0.00;0.00;;;;;;;-145.06;100.00;63404.56;10338366;28;20026;-64
2022/05/24 08:03:59;;;;;;;0.10;0.10;;;;;;;-145.06;100.00;63404.56;10336315;28;20034;-64
2022/05/24 08:08:59;;;;;;;0.10;0.10;;;;;;;-145.06;100.00;63404.56;10336628;28;20026;-64
2022/05/24 08:14:02;;;;;;;0.00;0.00;;;;;;;-145.06;100.00;63404.56;10337088;28;20038;-64
2022/05/24 08:19:02;;;;;;;0.00;0.00;;;;;;;-145.06;100.00;63404.56;10354477;28;20433;-65
2022/05/24 08:24:03;;;;;;;0.00;0.00;;;;;;;-145.06;100.00;63404.56;10339902;28;20072;-65
2022/05/24 08:29:04;;;;;;;0.00;0.00;;;;;;;-145.06;100.00;63404.56;10339521;28;20480;-64
2022/05/24 08:34:04;;;;;;;0.10;0.10;;;;;;;-145.06;100.00;63404.56;10337912;28;20028;-64
2022/05/24 08:39:04;;;;;;;0.00;0.00;;;;;;;-145.06;100.00;63404.56;10339240;28;20069;-64
2022/05/24 08:49:58;;;;;;;0.00;0.00;;;;;;;-145.06;100.00;63404.56;10327228;28;20037;-63
2022/05/24 08:54:58;;;;;;;0.00;0.00;;;;;;;-145.06;100.00;63404.56;10337773;28;20026;-63
2022/05/24 09:00:08;;;;;;;0.10;0.10;;;;;;;-145.06;100.00;63404.56;10338455;28;20121;-64
2022/05/24 09:05:18;;;;;;;0.10;0.10;;;;;;;-145.06;100.00;63404.56;10342298;28;20025;-64
2022/05/24 09:10:33;;;;;;;0.10;0.10;;;;;;;-145.06;100.00;63404.56;10336434;28;20451;-64
2022/05/24 09:15:50;;;;;;;0.10;0.10;;;;;;;-145.06;100.00;63404.56;10331307;28;20014;-65
2022/05/24 09:20:50;;;;;;;0.10;0.10;;;;;;;-145.06;100.00;63404.56;10336918;28;20026;-65
2022/05/24 09:25:59;;;;;;;0.00;0.00;;;;;;;-145.06;100.00;63404.56;10331258;28;20018;-65
2022/05/24 09:31:00;;;;;;;0.10;0.10;;;;;;;-145.06;100.00;63404.56;10332183;28;20485;-65
2022/05/24 09:36:00;;;;;;;0.10;0.10;;;;;;;-145.06;100.00;63404.56;10330348;28;20048;-65
2022/05/24 09:41:16;;;;;;;0.00;0.00;;;;;;;-145.06;100.00;63404.56;10330730;28;20045;-66
2022/05/24 09:46:26;;;;;;;0.10;0.10;;;;;;;-145.06;100.00;63404.56;10328830;28;20077;-66
2022/05/24 09:51:35;;;;;;;0.10;0.10;;;;;;;-145.06;100.00;63404.56;10329235;28;20024;-65
2022/05/24 09:56:36;;;;;;;0.05;0.05;;;;;;;-145.06;100.00;63404.56;10360525;28;20680;-66
2022/05/24 10:01:48;;;;;;;0.00;0.00;;;;;;;-145.06;100.00;63404.56;10330233;28;20058;-65
2022/05/24 10:06:59;;;;;;;0.10;0.10;;;;;;;-145.06;100.00;63404.56;10328798;28;20108;-65
2022/05/24 10:12:06;;;;;;;0.08;0.08;;;;;;;-145.06;100.00;63404.56;10329288;28;20109;-66
2022/05/24 10:17:18;;;;;;;0.10;0.10;;;;;;;-145.06;100.00;63404.56;10347580;28;20029;-66
2022/05/24 10:22:36;;;;;;;0.00;0.00;;;;;;;-145.06;100.00;63404.56;10331701;28;20022;-65
2022/05/24 10:27:42;;;;;;;0.05;0.05;;;;;;;-145.06;100.00;63404.56;10337552;28;20553;-65
2022/05/24 10:38:49;;;;;;;0.10;0.10;;;;;;;-145.06;100.00;63404.56;10348064;28;20029;-66
2022/05/24 10:44:19;;;;;;;0.10;0.10;;;;;;;-145.06;100.00;63404.56;10336129;28;20021;-65
2022/05/24 10:49:31;;;;;;;0.10;0.10;;;;;;;-145.06;100.00;63404.56;10347900;28;20598;-65
2022/05/24 10:54:49;;;;;;;0.10;0.10;;;;;;;-145.06;100.00;63404.56;10341278;28;20018;-65
2022/05/24 11:00:06;;;;;;;0.15;0.15;;;;;;;-145.06;100.00;63404.56;10329859;28;20038;-66
2022/05/24 11:05:10;;;;;;;0.10;0.10;;;;;;;-145.06;100.00;63404.56;10348575;28;20025;-66
2022/05/24 11:10:23;;;;;;;0.00;0.00;;;;;;;-145.06;100.00;63404.56;10367219;28;20369;-66
2022/05/24 11:15:38;;;;;;;0.10;0.10;;;;;;;-145.06;100.00;63404.56;10349658;28;20038;-66
2022/05/24 11:26:10;;;;;;;0.10;0.10;;;;;;;-145.06;100.00;63404.56;10392034;28;20103;-63
2022/05/24 11:31:36;;;;;;;0.10;0.10;;;;;;;-145.06;100.00;63404.56;10364656;28;20399;-63
2022/05/24 11:37:00;;;;;;;0.10;0.10;;;;;;;-145.06;100.00;63404.56;10388557;28;20435;-64
2022/05/24 11:42:29;;;;;;;0.10;0.10;;;;;;;-145.06;100.00;63404.56;10372425;28;20053;-64
2022/05/24 11:47:35;;;;;;;0.00;0.00;;;;;;;-145.06;100.00;63404.56;10382294;28;20033;-63
2022/05/24 11:53:02;;;;;;;0.05;0.05;;;;;;;-145.06;100.00;63404.56;10377193;28;20026;-64
2022/05/24 11:58:20;;;;;;;0.10;0.10;;;;;;;-145.06;100.00;63404.56;10372515;28;20057;-63
2022/05/24 12:08:41;;;;;;;0.10;0.10;;;;;;;-145.06;100.00;63404.56;10366338;28;20489;-64
2022/05/24 12:13:54;;;;;;;0.00;0.00;;;;;;;-145.06;100.00;63404.56;10361680;28;20022;-64
2022/05/24 12:18:59;;;;;;;0.00;0.00;;;;;;;-145.06;100.00;63404.56;10368245;28;20107;-63
2022/05/24 12:24:28;;;;;;;0.00;0.00;;;;;;;-145.06;100.00;63404.56;10372765;28;20084;-64
2022/05/24 12:29:28;;;;;;;0.10;0.10;;;;;;;-145.06;100.00;63404.56;10360586;28;20456;-64
2022/05/24 12:34:32;;;;;;;0.00;0.00;;;;;;;-145.06;100.00;63404.56;10363488;28;20060;-64
2022/05/24 12:39:35;;;;;;;0.00;0.00;;;;;;;-145.06;100.00;63404.56;10362146;28;20922;-62
2022/05/24 12:44:47;;;;;;;0.00;0.00;;;;;;;-145.06;100.00;63404.56;10364416;28;20025;-63
2022/05/24 12:49:48;;;;;;;0.10;0.10;;;;;;;-145.06;100.00;63404.56;10366059;28;20021;-64
2022/05/24 12:54:59;;;;;;;0.10;0.10;;;;;;;-145.06;100.00;63404.56;10366756;28;20026;-64
2022/05/24 13:00:04;;;;;;;0.10;0.10;;;;;;;-145.06;100.00;63404.56;10364846;28;20030;-64
2022/05/24 13:05:07;;;;;;;0.00;0.00;;;;;;;-145.06;100.00;63404.56;10360755;28;20452;-63
2022/05/24 13:10:34;;;;;;;0.00;0.00;;;;;;;-145.06;100.00;63404.56;10366548;28;20017;-64
2022/05/24 13:15:56;;;;;;;0.10;0.10;;;;;;;-145.06;100.00;63404.56;10358724;28;20112;-62
2022/05/24 13:20:59;;;;;;;0.00;0.00;;;;;;;-145.06;100.00;63404.56;10381520;28;20113;-64
2022/05/24 13:26:05;;;;;;;0.03;0.03;;;;;;;-145.06;100.00;63404.56;10363926;28;20033;-64
2022/05/24 13:36:51;;;;;;;0.10;0.10;;;;;;;-145.06;100.00;63404.56;10363016;28;20022;-63
2022/05/24 13:42:00;;;;;;;0.00;0.00;;;;;;;-145.06;100.00;63404.56;10359230;28;20037;-63
2022/05/24 13:47:02;;;;;;;0.10;0.10;;;;;;;-145.06;100.00;63404.56;10358573;28;20025;-63
2022/05/24 13:52:18;;;;;;;0.00;0.00;;;;;;;-145.06;100.00;63404.56;10361374;28;20022;-64
2022/05/24 13:57:30;;;;;;;0.00;0.00;;;;;;;-145.06;100.00;63404.56;10355288;28;20113;-63
2022/05/24 14:02:31;;;;;;;0.10;0.10;;;;;;;-145.06;100.00;63404.56;10365363;28;20048;-63
2022/05/24 14:07:32;;;;;;;0.10;0.10;;;;;;;-145.06;100.00;63404.56;10364587;28;20505;-62
2022/05/24 14:12:32;;;;;;;0.10;0.10;;;;;;;-145.06;100.00;63404.56;10371911;28;20020;-62
2022/05/24 14:17:32;;;;;;;0.00;0.00;;;;;;;-145.06;100.00;63404.56;10360740;28;20041;-62
2022/05/24 14:22:33;;;;;;;0.10;0.10;;;;;;;-145.06;100.00;63404.56;10366364;28;20492;-62
2022/05/24 14:27:34;;;;;;;0.10;0.10;;;;;;;-145.06;100.00;63404.56;10375531;28;20022;-62
2022/05/24 14:32:35;;;;;;;0.10;0.10;;;;;;;-145.06;100.00;63404.56;10369342;28;20017;-64
2022/05/24 14:37:35;;;;;;;0.10;0.10;;;;;;;-145.06;100.00;63404.56;10368556;28;20369;-64
2022/05/24 14:42:36;;;;;;;0.05;0.05;;;;;;;-145.06;100.00;63404.56;10373145;28;20087;-63
2022/05/24 14:47:36;;;;;;;0.00;0.00;;;;;;;-145.06;100.00;63404.56;10370466;28;20289;-63
2022/05/24 14:52:37;;;;;;;0.10;0.10;;;;;;;-145.06;100.00;63404.56;10363738;28;20257;-64
2022/05/24 14:57:38;;;;;;;0.03;0.03;;;;;;;-145.06;100.00;63404.56;10368143;28;20022;-61
2022/05/24 15:02:40;;;;;;;0.00;0.00;;;;;;;-145.06;100.00;63404.56;10368041;28;20034;-61
2022/05/24 15:18:48;;;;;;;0.10;0.10;;;;;;;-145.06;100.00;63404.56;10370898;28;20025;-63
2022/05/24 15:23:53;;;;;;;0.10;0.10;;;;;;;-145.06;100.00;63404.56;10388921;28;20468;-63
2022/05/24 15:28:56;;;;;;;0.00;0.00;;;;;;;-145.06;100.00;63404.56;10386448;28;20040;-63
2022/05/24 15:33:56;;;;;;;0.00;0.00;;;;;;;-145.06;100.00;63404.56;10394557;28;20084;-62
2022/05/24 15:38:58;;;;;;;0.10;0.10;;;;;;;-145.06;100.00;63404.56;10385171;28;20079;-62
2022/05/24 15:43:59;;;;;;;0.00;0.00;;;;;;;-145.06;100.00;63404.56;10394584;28;20285;-64
2022/05/24 15:49:00;;;;;;;0.10;0.10;;;;;;;-145.06;100.00;63404.56;10366262;28;20033;-63
2022/05/24 15:54:00;;;;;;;0.10;0.10;;;;;;;-145.06;100.00;63404.56;10364012;28;20030;-63
2022/05/24 15:59:01;;;;;;;0.00;0.00;;;;;;;-145.06;100.00;63404.56;10368104;28;20029;-64
2022/05/24 16:04:01;;;;;;;0.10;0.10;;;;;;;-145.06;100.00;63404.56;10366379;28;20037;-64
2022/05/24 16:14:40;;;;;;;0.10;0.10;;;;;;;-145.06;100.00;63404.56;10408091;28;20480;-64
2022/05/24 16:19:43;;;;;;;0.10;0.10;;;;;;;-145.06;100.00;63404.56;10386087;28;20034;-64
2022/05/24 16:24:43;;;;;;;0.10;0.10;;;;;;;-145.06;100.00;63404.56;10379110;28;20029;-65
2022/05/24 16:29:44;;;;;;;0.10;0.10;;;;;;;-145.06;100.00;63404.56;10396189;28;20013;-64
2022/05/24 16:34:44;;;;;;;0.10;0.10;;;;;;;-145.06;100.00;63404.56;10395390;28;20021;-65
2022/05/24 16:39:45;;;;;;;0.10;0.10;;;;;;;-145.06;100.00;63404.56;10411804;28;20061;-65
2022/05/24 16:44:45;;;;;;;0.10;0.10;;;;;;;-145.06;100.00;63404.56;10389095;28;20056;-64
2022/05/24 16:49:46;;;;;;;0.10;0.10;;;;;;;-145.06;100.00;63404.56;10382106;28;20662;-64
2022/05/24 17:00:10;;;;;;;0.00;0.00;;;;;;;-145.06;100.00;63404.56;10376332;28;20297;-64
2022/05/24 17:05:11;;;;;;;0.10;0.10;;;;;;;-145.06;100.00;63404.56;10386061;28;20416;-63
2022/05/24 17:10:12;;;;;;;0.10;0.10;;;;;;;-145.06;100.00;63404.56;10373164;28;20121;-64
2022/05/24 17:15:15;;;;;;;0.10;0.10;;;;;;;-145.06;100.00;63404.56;10391303;28;20576;-64
2022/05/24 17:20:19;;;;;;;0.10;0.10;;;;;;;-145.06;100.00;63404.56;10399576;22;20050;-91
2022/05/24 17:25:21;;;;;;;0.10;0.10;;;;;;;-145.06;100.00;63404.56;10365393;28;20077;-92
2022/05/24 17:30:28;;;;;;;0.10;0.10;;;;;;;-145.06;100.00;63404.56;10358198;28;20426;-92
2022/05/24 17:35:29;;;;;;;0.10;0.10;;;;;;;-145.06;100.00;63404.56;10354713;28;20049;-90
2022/05/24 17:40:33;;;;;;;0.10;0.10;;;;;;;-145.06;100.00;63404.56;10354577;28;20015;-92
2022/05/24 17:45:34;;;;;;;0.10;0.10;;;;;;;-145.06;100.00;63404.56;10356054;28;20009;-91
2022/05/24 17:50:36;;;;;;;0.10;0.10;;;;;;;-145.06;100.00;63404.56;10357873;28;20026;-90
2022/05/24 17:55:37;;;;;;;0.10;0.10;;;;;;;-145.06;100.00;63404.56;10356411;28;20055;-91
2022/05/24 18:00:38;;;;;;;0.10;0.10;;;;;;;-145.06;100.00;63404.56;10356453;28;20039;-91
2022/05/24 18:05:39;;;;;;;0.10;0.10;;;;;;;-145.06;100.00;63404.56;10357140;28;20094;-91
2022/05/24 18:10:41;;;;;;;0.10;0.10;;;;;;;-145.06;100.00;63404.56;10368237;28;20521;-91
2022/05/24 18:15:41;;;;;;;0.10;0.10;;;;;;;-145.06;100.00;63404.56;10347758;28;20038;-91
2022/05/24 18:20:50;;;;;;;0.10;0.10;;;;;;;-145.06;100.00;63404.56;10361652;28;20044;-91
2022/05/24 18:36:49;;;;;;;0.10;0.10;;;;;;;-145.06;100.00;63404.56;10352028;28;20022;-90
2022/05/24 18:41:49;;;;;;;0.10;0.10;;;;;;;-145.06;100.00;63404.56;10357473;28;20036;-91
2022/05/24 18:46:50;;;;;;;0.10;0.10;;;;;;;-145.06;100.00;63404.56;10356117;28;20030;-92
2022/05/24 18:51:51;;;;;;;0.10;0.10;;;;;;;-145.06;100.00;63404.56;10362345;28;20745;-92
2022/05/24 18:56:51;;;;;;;0.10;0.10;;;;;;;-145.06;100.00;63404.56;10354329;28;20109;-91
2022/05/24 19:01:52;;;;;;;0.10;0.10;;;;;;;-145.06;100.00;63404.56;10353083;28;20061;-91
2022/05/24 19:12:12;;;;;;;0.10;0.10;;;;;;;-145.06;100.00;63404.56;10353584;28;20030;-91
2022/05/24 19:17:16;;;;;;;0.10;0.10;;;;;;;-145.06;100.00;63404.56;10352096;28;20042;-92
2022/05/24 19:22:19;;;;;;;0.10;0.10;;;;;;;-145.06;100.00;63404.56;10356320;28;20573;-92
2022/05/24 19:27:23;;;;;;;0.10;0.10;;;;;;;-145.06;100.00;63404.56;10355799;28;20021;-93
2022/05/24 19:32:24;;;;;;;0.10;0.10;;;;;;;-145.06;100.00;63404.56;10354725;28;20105;-92
2022/05/24 19:37:25;;;;;;;0.10;0.10;;;;;;;-145.06;100.00;63404.56;10348490;28;20277;-92
2022/05/24 19:42:25;;;;;;;0.10;0.10;;;;;;;-145.06;100.00;63404.56;10355024;28;20309;-92
2022/05/24 19:47:26;;;;;;;0.00;0.00;;;;;;;-145.06;100.00;63404.56;10353550;28;20076;-92
2022/05/24 19:52:27;;;;;;;0.10;0.10;;;;;;;-145.06;100.00;63404.56;10356195;28;20486;-92
2022/05/24 19:57:28;;;;;;;0.00;0.00;;;;;;;-145.06;100.00;63404.56;10355300;28;20090;-93
2022/05/24 20:02:28;;;;;;;0.00;0.00;;;;;;;-145.06;100.00;63404.56;10354412;28;20034;-92
2022/05/24 20:07:28;;;;;;;0.10;0.10;;;;;;;-145.06;100.00;63404.56;10352849;28;20022;-91
2022/05/24 20:12:29;;;;;;;0.05;0.05;;;;;;;-145.06;100.00;63404.56;10347138;28;20030;-92
2022/05/24 20:17:30;;;;;;;0.00;0.00;;;;;;;-145.06;100.00;63404.56;10342798;28;20034;-87
2022/05/24 20:22:31;;;;;;;0.00;0.00;;;;;;;-145.06;100.00;63404.56;10355247;28;20273;-87
2022/05/24 20:27:31;;;;;;;0.10;0.10;;;;;;;-145.06;100.00;63404.56;10378660;28;20045;-86
2022/05/24 20:32:32;;;;;;;0.10;0.10;;;;;;;-145.06;100.00;63404.56;10378999;28;20034;-86
2022/05/24 20:37:32;;;;;;;0.00;0.00;;;;;;;-145.06;100.00;63404.56;10377330;28;20022;-86
2022/05/24 20:42:33;;;;;;;0.10;0.10;;;;;;;-145.06;100.00;63404.56;10409629;28;20717;-93
2022/05/24 20:47:34;;;;;;;0.00;0.00;;;;;;;-145.06;100.00;63404.56;10417525;28;20021;-92
2022/05/24 20:52:34;;;;;;;0.10;0.10;;;;;;;-145.06;100.00;63404.56;10403406;28;20017;-95
2022/05/24 20:57:35;;;;;;;0.00;0.00;;;;;;;-145.06;100.00;63404.56;10416227;28;20040;-93
2022/05/24 21:03:19;;;;;;;0.00;0.00;;;;;;;-145.06;100.00;63404.56;10421643;28;20075;-93
2022/05/24 21:08:20;;;;;;;0.00;0.00;;;;;;;-145.06;100.00;63404.56;10425242;28;20049;-93
2022/05/24 21:13:22;;;;;;;0.10;0.10;;;;;;;-145.06;100.00;63404.56;10425114;28;20030;-92
2022/05/24 21:18:24;;;;;;;0.10;0.10;;;;;;;-145.06;100.00;63404.56;10421636;28;20044;-93
2022/05/24 21:23:25;;;;;;;0.10;0.10;;;;;;;-145.06;100.00;63404.56;10395619;28;20032;-92
2022/05/24 21:28:29;;;;;;;0.00;0.00;;;;;;;-145.06;100.00;63404.56;10395436;28;20034;-92
2022/05/24 21:33:32;;;;;;;0.00;0.00;;;;;;;-145.06;100.00;63404.56;10406074;28;20020;-93
2022/05/24 21:38:34;;;;;;;0.00;0.00;;;;;;;-145.06;100.00;63404.56;10400092;28;20022;-93
2022/05/24 21:43:34;;;;;;;0.10;0.10;;;;;;;-145.06;100.00;63404.56;10408133;28;20025;-92
2022/05/24 21:48:35;;;;;;;0.00;0.00;;;;;;;-145.06;100.00;63404.56;10399026;28;20005;-93
2022/05/24 21:53:38;;;;;;;0.00;0.00;;;;;;;-145.06;100.00;63404.56;10405464;28;20030;-93
2022/05/24 21:58:40;;;;;;;0.00;0.00;;;;;;;-145.06;100.00;63404.56;10404285;28;20065;-92
2022/05/24 22:03:44;;;;;;;0.00;0.00;;;;;;;-145.06;100.00;63404.56;10395439;28;20052;-93
2022/05/24 22:08:45;;;;;;;0.00;0.00;;;;;;;-145.06;100.00;63404.56;10394787;28;20040;-93
2022/05/24 22:13:47;;;;;;;0.10;0.10;;;;;;;-145.06;100.00;63404.56;10401781;28;20034;-93
2022/05/24 22:18:48;;;;;;;0.00;0.00;;;;;;;-145.06;100.00;63404.56;10403464;28;20010;-93
2022/05/24 22:23:49;;;;;;;0.00;0.00;;;;;;;-145.06;100.00;63404.56;10398439;28;20037;-92
2022/05/24 22:28:50;;;;;;;0.10;0.10;;;;;;;-145.06;100.00;63404.56;10395561;28;20030;-93
2022/05/24 22:33:54;;;;;;;0.00;0.00;;;;;;;-145.06;100.00;63404.56;10402925;28;20019;-93
2022/05/24 22:38:54;;;;;;;0.10;0.10;;;;;;;-145.06;100.00;63404.56;10401805;28;20063;-92
2022/05/24 22:43:55;;;;;;;0.10;0.10;;;;;;;-145.06;100.00;63404.56;10390712;28;20518;-92
2022/05/24 22:48:56;;;;;;;0.00;0.00;;;;;;;-145.06;100.00;63404.56;10389088;28;20258;-92
2022/05/24 22:53:57;;;;;;;0.00;0.00;;;;;;;-145.06;100.00;63404.56;10394689;28;20022;-93
2022/05/24 22:58:58;;;;;;;0.00;0.00;;;;;;;-145.06;100.00;63404.56;10390416;28;20062;-92
2022/05/24 23:03:59;;;;;;;0.00;0.00;;;;;;;-145.06;100.00;63404.56;10390632;28;20057;-93
2022/05/24 23:09:00;;;;;;;0.10;0.10;;;;;;;-145.06;100.00;63404.56;10401149;28;20086;-92
2022/05/24 23:14:00;;;;;;;0.00;0.00;;;;;;;-145.06;100.00;63404.56;10393059;28;20109;-94
2022/05/24 23:19:01;;;;;;;0.00;0.00;;;;;;;-145.06;100.00;63404.56;10400222;28;20030;-93
